sensor_id;sensor_type;location;lat;lon;timestamp;temperature;humidity
5346;DHT22;2695;49.444;11.054;2023-04-30T00:01:46;12.80;99.90
5346;DHT22;2695;49.444;11.054;2023-04-30T00:04:15;12.80;99.90
5346;DHT22;2695;49.444;11.054;2023-04-30T00:06:44;12.80;99.90
5346;DHT22;2695;49.444;11.054;2023-04-30T00:09:12;12.80;99.90
5346;DHT22;2695;49.444;11.054;2023-04-30T00:11:40;12.80;99.90
5346;DHT22;2695;49.444;11.054;2023-04-30T00:14:08;12.80;99.90
5346;DHT22;2695;49.444;11.054;2023-04-30T00:16:36;12.80;99.90
5346;DHT22;2695;49.444;11.054;2023-04-30T00:19:04;12.80;99.90
5346;DHT22;2695;49.444;11.054;2023-04-30T00:21:34;12.80;99.90
5346;DHT22;2695;49.444;11.054;2023-04-30T00:24:02;12.80;99.90
5346;DHT22;2695;49.444;11.054;2023-04-30T00:26:30;12.80;99.90
5346;DHT22;2695;49.444;11.054;2023-04-30T00:28:58;12.80;99.90
5346;DHT22;2695;49.444;11.054;2023-04-30T00:31:26;12.70;99.90
5346;DHT22;2695;49.444;11.054;2023-04-30T00:33:54;12.70;99.90
5346;DHT22;2695;49.444;11.054;2023-04-30T00:36:22;12.70;99.90
5346;DHT22;2695;49.444;11.054;2023-04-30T00:38:51;12.70;99.90
5346;DHT22;2695;49.444;11.054;2023-04-30T00:41:20;12.70;99.90
5346;DHT22;2695;49.444;11.054;2023-04-30T00:43:49;12.70;99.90
5346;DHT22;2695;49.444;11.054;2023-04-30T00:46:17;12.70;99.90
5346;DHT22;2695;49.444;11.054;2023-04-30T00:48:45;12.70;99.90
5346;DHT22;2695;49.444;11.054;2023-04-30T00:51:13;12.60;99.90
5346;DHT22;2695;49.444;11.054;2023-04-30T00:53:41;12.60;99.90
5346;DHT22;2695;49.444;11.054;2023-04-30T00:56:12;12.70;99.90
5346;DHT22;2695;49.444;11.054;2023-04-30T00:58:42;12.60;99.90
5346;DHT22;2695;49.444;11.054;2023-04-30T01:01:10;12.60;99.90
5346;DHT22;2695;49.444;11.054;2023-04-30T01:03:38;12.60;99.90
5346;DHT22;2695;49.444;11.054;2023-04-30T01:06:07;12.50;99.90
5346;DHT22;2695;49.444;11.054;2023-04-30T01:08:35;12.50;99.90
5346;DHT22;2695;49.444;11.054;2023-04-30T01:11:19;12.60;99.90
5346;DHT22;2695;49.444;11.054;2023-04-30T01:13:54;12.50;99.90
5346;DHT22;2695;49.444;11.054;2023-04-30T01:16:25;12.40;99.90
5346;DHT22;2695;49.444;11.054;2023-04-30T01:18:58;12.40;99.90
5346;DHT22;2695;49.444;11.054;2023-04-30T01:21:27;12.40;99.90
5346;DHT22;2695;49.444;11.054;2023-04-30T01:24:34;12.30;99.90
5346;DHT22;2695;49.444;11.054;2023-04-30T01:27:23;12.30;99.90
5346;DHT22;2695;49.444;11.054;2023-04-30T01:29:55;12.30;99.90
5346;DHT22;2695;49.444;11.054;2023-04-30T01:32:24;12.30;99.90
5346;DHT22;2695;49.444;11.054;2023-04-30T01:34:52;12.40;99.90
5346;DHT22;2695;49.444;11.054;2023-04-30T01:37:26;12.30;99.90
5346;DHT22;2695;49.444;11.054;2023-04-30T01:40:11;12.30;99.90
5346;DHT22;2695;49.444;11.054;2023-04-30T01:42:50;12.30;99.90
5346;DHT22;2695;49.444;11.054;2023-04-30T01:45:31;12.40;99.90
5346;DHT22;2695;49.444;11.054;2023-04-30T01:48:07;12.30;99.90
5346;DHT22;2695;49.444;11.054;2023-04-30T01:50:43;12.30;99.90
5346;DHT22;2695;49.444;11.054;2023-04-30T01:53:19;12.30;99.90
5346;DHT22;2695;49.444;11.054;2023-04-30T01:55:50;12.30;99.90
5346;DHT22;2695;49.444;11.054;2023-04-30T01:58:23;12.30;99.90
5346;DHT22;2695;49.444;11.054;2023-04-30T02:00:52;12.20;99.90
5346;DHT22;2695;49.444;11.054;2023-04-30T02:03:20;12.20;99.90
5346;DHT22;2695;49.444;11.054;2023-04-30T02:05:49;12.30;99.90
5346;DHT22;2695;49.444;11.054;2023-04-30T02:08:17;12.30;99.90
5346;DHT22;2695;49.444;11.054;2023-04-30T02:10:45;12.20;99.90
5346;DHT22;2695;49.444;11.054;2023-04-30T02:13:13;12.30;99.90
5346;DHT22;2695;49.444;11.054;2023-04-30T02:15:41;12.20;99.90
5346;DHT22;2695;49.444;11.054;2023-04-30T02:18:10;12.30;99.90
5346;DHT22;2695;49.444;11.054;2023-04-30T02:20:39;12.30;99.90
5346;DHT22;2695;49.444;11.054;2023-04-30T02:23:07;12.30;99.90
5346;DHT22;2695;49.444;11.054;2023-04-30T02:25:35;12.20;99.90
5346;DHT22;2695;49.444;11.054;2023-04-30T02:28:04;12.30;99.90
5346;DHT22;2695;49.444;11.054;2023-04-30T02:30:32;12.20;99.90
5346;DHT22;2695;49.444;11.054;2023-04-30T02:33:00;12.10;99.90
5346;DHT22;2695;49.444;11.054;2023-04-30T02:35:30;12.10;99.90
5346;DHT22;2695;49.444;11.054;2023-04-30T02:37:58;12.10;99.90
5346;DHT22;2695;49.444;11.054;2023-04-30T02:40:26;12.10;99.90
5346;DHT22;2695;49.444;11.054;2023-04-30T02:42:54;12.10;99.90
5346;DHT22;2695;49.444;11.054;2023-04-30T02:45:22;12.10;99.90
5346;DHT22;2695;49.444;11.054;2023-04-30T02:47:50;12.10;99.90
5346;DHT22;2695;49.444;11.054;2023-04-30T02:50:18;12.00;99.90
5346;DHT22;2695;49.444;11.054;2023-04-30T02:52:48;12.00;99.90
5346;DHT22;2695;49.444;11.054;2023-04-30T02:55:16;12.00;99.90
5346;DHT22;2695;49.444;11.054;2023-04-30T02:57:44;12.00;99.90
5346;DHT22;2695;49.444;11.054;2023-04-30T03:00:12;12.00;99.90
5346;DHT22;2695;49.444;11.054;2023-04-30T03:02:41;12.00;99.90
5346;DHT22;2695;49.444;11.054;2023-04-30T03:05:10;12.00;99.90
5346;DHT22;2695;49.444;11.054;2023-04-30T03:07:38;12.00;99.90
5346;DHT22;2695;49.444;11.054;2023-04-30T03:10:08;12.00;99.90
5346;DHT22;2695;49.444;11.054;2023-04-30T03:12:36;12.00;99.90
5346;DHT22;2695;49.444;11.054;2023-04-30T03:15:06;12.00;99.90
5346;DHT22;2695;49.444;11.054;2023-04-30T03:17:34;12.00;99.90
5346;DHT22;2695;49.444;11.054;2023-04-30T03:20:03;11.80;99.90
5346;DHT22;2695;49.444;11.054;2023-04-30T03:22:31;11.90;99.90
5346;DHT22;2695;49.444;11.054;2023-04-30T03:24:59;11.80;99.90
5346;DHT22;2695;49.444;11.054;2023-04-30T03:27:28;11.90;99.90
5346;DHT22;2695;49.444;11.054;2023-04-30T03:29:56;11.80;99.90
5346;DHT22;2695;49.444;11.054;2023-04-30T03:32:24;11.90;99.90
5346;DHT22;2695;49.444;11.054;2023-04-30T03:34:52;11.90;99.90
5346;DHT22;2695;49.444;11.054;2023-04-30T03:37:20;11.90;99.90
5346;DHT22;2695;49.444;11.054;2023-04-30T03:39:48;11.90;99.90
5346;DHT22;2695;49.444;11.054;2023-04-30T03:42:16;12.00;99.90
5346;DHT22;2695;49.444;11.054;2023-04-30T03:44:46;11.90;99.90
5346;DHT22;2695;49.444;11.054;2023-04-30T03:47:14;11.90;99.90
5346;DHT22;2695;49.444;11.054;2023-04-30T03:49:42;11.90;99.90
5346;DHT22;2695;49.444;11.054;2023-04-30T03:52:10;11.90;99.90
5346;DHT22;2695;49.444;11.054;2023-04-30T03:54:38;11.90;99.90
5346;DHT22;2695;49.444;11.054;2023-04-30T03:57:06;11.90;99.90
5346;DHT22;2695;49.444;11.054;2023-04-30T03:59:36;11.90;99.90
5346;DHT22;2695;49.444;11.054;2023-04-30T04:02:05;11.90;99.90
5346;DHT22;2695;49.444;11.054;2023-04-30T04:04:34;11.90;99.90
5346;DHT22;2695;49.444;11.054;2023-04-30T04:07:02;11.80;99.90
5346;DHT22;2695;49.444;11.054;2023-04-30T04:09:30;11.80;99.90
5346;DHT22;2695;49.444;11.054;2023-04-30T04:11:58;11.90;99.90
5346;DHT22;2695;49.444;11.054;2023-04-30T04:14:27;11.80;99.90
5346;DHT22;2695;49.444;11.054;2023-04-30T04:16:55;11.90;99.90
5346;DHT22;2695;49.444;11.054;2023-04-30T04:19:27;11.90;99.90
5346;DHT22;2695;49.444;11.054;2023-04-30T04:21:55;11.90;99.90
5346;DHT22;2695;49.444;11.054;2023-04-30T04:24:23;11.90;99.90
5346;DHT22;2695;49.444;11.054;2023-04-30T04:26:51;11.90;99.90
5346;DHT22;2695;49.444;11.054;2023-04-30T04:29:20;11.90;99.90
5346;DHT22;2695;49.444;11.054;2023-04-30T04:31:48;11.90;99.90
5346;DHT22;2695;49.444;11.054;2023-04-30T04:34:17;11.90;99.90
5346;DHT22;2695;49.444;11.054;2023-04-30T04:36:47;12.00;99.90
5346;DHT22;2695;49.444;11.054;2023-04-30T04:39:15;12.00;99.90
5346;DHT22;2695;49.444;11.054;2023-04-30T04:41:43;12.10;99.90
5346;DHT22;2695;49.444;11.054;2023-04-30T04:44:11;12.10;99.90
5346;DHT22;2695;49.444;11.054;2023-04-30T04:46:39;12.10;99.90
5346;DHT22;2695;49.444;11.054;2023-04-30T04:49:08;12.10;99.90
5346;DHT22;2695;49.444;11.054;2023-04-30T04:51:36;12.20;99.90
5346;DHT22;2695;49.444;11.054;2023-04-30T04:54:06;12.20;99.90
5346;DHT22;2695;49.444;11.054;2023-04-30T04:56:34;12.20;99.90
5346;DHT22;2695;49.444;11.054;2023-04-30T04:59:02;12.40;99.90
5346;DHT22;2695;49.444;11.054;2023-04-30T05:01:30;12.40;99.90
5346;DHT22;2695;49.444;11.054;2023-04-30T05:03:58;12.40;99.90
5346;DHT22;2695;49.444;11.054;2023-04-30T05:06:26;12.50;99.90
5346;DHT22;2695;49.444;11.054;2023-04-30T05:08:54;12.50;99.90
5346;DHT22;2695;49.444;11.054;2023-04-30T05:11:24;12.60;99.90
5346;DHT22;2695;49.444;11.054;2023-04-30T05:13:52;12.60;99.90
5346;DHT22;2695;49.444;11.054;2023-04-30T05:16:20;12.70;99.90
5346;DHT22;2695;49.444;11.054;2023-04-30T05:18:48;12.80;99.90
5346;DHT22;2695;49.444;11.054;2023-04-30T05:21:16;12.90;99.90
5346;DHT22;2695;49.444;11.054;2023-04-30T05:23:44;13.10;99.90
5346;DHT22;2695;49.444;11.054;2023-04-30T05:26:12;13.20;99.90
5346;DHT22;2695;49.444;11.054;2023-04-30T05:28:41;13.30;99.90
5346;DHT22;2695;49.444;11.054;2023-04-30T05:31:09;13.40;99.90
5346;DHT22;2695;49.444;11.054;2023-04-30T05:33:38;13.40;99.90
5346;DHT22;2695;49.444;11.054;2023-04-30T05:36:06;13.50;99.90
5346;DHT22;2695;49.444;11.054;2023-04-30T05:38:34;13.60;99.90
5346;DHT22;2695;49.444;11.054;2023-04-30T05:41:02;13.60;99.90
5346;DHT22;2695;49.444;11.054;2023-04-30T05:43:30;13.50;99.90
5346;DHT22;2695;49.444;11.054;2023-04-30T05:46:00;13.50;99.90
5346;DHT22;2695;49.444;11.054;2023-04-30T05:48:29;13.50;99.90
5346;DHT22;2695;49.444;11.054;2023-04-30T05:50:57;13.80;99.90
5346;DHT22;2695;49.444;11.054;2023-04-30T05:53:25;14.10;99.90
5346;DHT22;2695;49.444;11.054;2023-04-30T05:55:53;14.50;99.90
5346;DHT22;2695;49.444;11.054;2023-04-30T05:58:21;15.50;99.90
5346;DHT22;2695;49.444;11.054;2023-04-30T06:00:49;17.10;99.90
5346;DHT22;2695;49.444;11.054;2023-04-30T06:03:19;18.20;99.90
5346;DHT22;2695;49.444;11.054;2023-04-30T06:05:47;18.70;99.90
5346;DHT22;2695;49.444;11.054;2023-04-30T06:08:15;18.90;99.90
5346;DHT22;2695;49.444;11.054;2023-04-30T06:10:43;18.60;99.90
5346;DHT22;2695;49.444;11.054;2023-04-30T06:13:11;18.20;99.90
5346;DHT22;2695;49.444;11.054;2023-04-30T06:15:40;17.90;99.90
5346;DHT22;2695;49.444;11.054;2023-04-30T06:18:08;17.80;99.90
5346;DHT22;2695;49.444;11.054;2023-04-30T06:20:40;18.10;99.90
5346;DHT22;2695;49.444;11.054;2023-04-30T06:23:09;18.80;99.90
5346;DHT22;2695;49.444;11.054;2023-04-30T06:25:38;18.90;99.90
5346;DHT22;2695;49.444;11.054;2023-04-30T06:28:06;19.30;99.90
5346;DHT22;2695;49.444;11.054;2023-04-30T06:30:36;20.30;98.90
5346;DHT22;2695;49.444;11.054;2023-04-30T06:33:04;21.30;96.60
5346;DHT22;2695;49.444;11.054;2023-04-30T06:35:44;21.90;95.10
5346;DHT22;2695;49.444;11.054;2023-04-30T06:38:23;22.20;93.80
5346;DHT22;2695;49.444;11.054;2023-04-30T06:40:52;22.50;93.30
5346;DHT22;2695;49.444;11.054;2023-04-30T06:43:20;23.40;91.30
5346;DHT22;2695;49.444;11.054;2023-04-30T06:45:51;24.60;87.70
5346;DHT22;2695;49.444;11.054;2023-04-30T06:48:20;25.90;80.30
5346;DHT22;2695;49.444;11.054;2023-04-30T06:50:50;26.80;72.60
5346;DHT22;2695;49.444;11.054;2023-04-30T06:53:18;27.40;66.20
5346;DHT22;2695;49.444;11.054;2023-04-30T06:55:47;27.60;62.00
5346;DHT22;2695;49.444;11.054;2023-04-30T06:58:17;27.40;60.50
5346;DHT22;2695;49.444;11.054;2023-04-30T07:00:45;27.10;59.00
5346;DHT22;2695;49.444;11.054;2023-04-30T07:03:13;27.40;56.60
5346;DHT22;2695;49.444;11.054;2023-04-30T07:05:41;27.20;55.80
5346;DHT22;2695;49.444;11.054;2023-04-30T07:08:11;26.40;56.70
5346;DHT22;2695;49.444;11.054;2023-04-30T07:10:40;26.90;57.20
5346;DHT22;2695;49.444;11.054;2023-04-30T07:13:08;27.20;56.80
5346;DHT22;2695;49.444;11.054;2023-04-30T07:15:37;27.40;54.40
5346;DHT22;2695;49.444;11.054;2023-04-30T07:18:06;27.90;54.50
5346;DHT22;2695;49.444;11.054;2023-04-30T07:20:34;28.40;52.60
5346;DHT22;2695;49.444;11.054;2023-04-30T07:23:02;28.90;52.20
5346;DHT22;2695;49.444;11.054;2023-04-30T07:25:32;30.00;49.70
5346;DHT22;2695;49.444;11.054;2023-04-30T07:27:59;30.20;47.80
5346;DHT22;2695;49.444;11.054;2023-04-30T07:30:28;30.10;46.50
5346;DHT22;2695;49.444;11.054;2023-04-30T07:32:59;29.80;46.90
5346;DHT22;2695;49.444;11.054;2023-04-30T07:35:26;29.30;47.10
5346;DHT22;2695;49.444;11.054;2023-04-30T07:37:55;29.60;46.90
5346;DHT22;2695;49.444;11.054;2023-04-30T07:40:23;30.00;46.40
5346;DHT22;2695;49.444;11.054;2023-04-30T07:43:03;30.30;45.50
5346;DHT22;2695;49.444;11.054;2023-04-30T07:45:32;30.20;46.20
5346;DHT22;2695;49.444;11.054;2023-04-30T07:48:08;30.80;44.50
5346;DHT22;2695;49.444;11.054;2023-04-30T07:50:43;31.40;43.40
5346;DHT22;2695;49.444;11.054;2023-04-30T07:53:35;31.70;42.40
5346;DHT22;2695;49.444;11.054;2023-04-30T07:56:06;32.10;41.30
5346;DHT22;2695;49.444;11.054;2023-04-30T07:58:35;32.80;40.50
5346;DHT22;2695;49.444;11.054;2023-04-30T08:01:03;33.70;39.70
5346;DHT22;2695;49.444;11.054;2023-04-30T08:03:32;34.30;37.10
5346;DHT22;2695;49.444;11.054;2023-04-30T08:06:04;33.60;37.10
5346;DHT22;2695;49.444;11.054;2023-04-30T08:08:32;33.20;37.10
5346;DHT22;2695;49.444;11.054;2023-04-30T08:11:25;32.90;37.80
5346;DHT22;2695;49.444;11.054;2023-04-30T08:14:04;32.40;36.90
5346;DHT22;2695;49.444;11.054;2023-04-30T08:16:55;32.00;38.40
5346;DHT22;2695;49.444;11.054;2023-04-30T08:19:30;32.20;37.10
5346;DHT22;2695;49.444;11.054;2023-04-30T08:22:06;32.30;36.50
5346;DHT22;2695;49.444;11.054;2023-04-30T08:25:14;31.70;37.30
5346;DHT22;2695;49.444;11.054;2023-04-30T08:27:52;32.90;36.70
5346;DHT22;2695;49.444;11.054;2023-04-30T08:33:20;30.30;34.00
5346;DHT22;2695;49.444;11.054;2023-04-30T08:36:14;28.70;38.30
5346;DHT22;2695;49.444;11.054;2023-04-30T08:38:50;29.40;37.90
5346;DHT22;2695;49.444;11.054;2023-04-30T08:41:20;31.00;35.30
5346;DHT22;2695;49.444;11.054;2023-04-30T08:43:51;32.10;34.30
5346;DHT22;2695;49.444;11.054;2023-04-30T08:46:21;32.10;32.10
5346;DHT22;2695;49.444;11.054;2023-04-30T08:48:52;31.10;32.80
5346;DHT22;2695;49.444;11.054;2023-04-30T08:51:35;30.80;32.90
5346;DHT22;2695;49.444;11.054;2023-04-30T08:54:11;30.80;30.50
5346;DHT22;2695;49.444;11.054;2023-04-30T08:56:55;30.90;31.20
5346;DHT22;2695;49.444;11.054;2023-04-30T08:59:33;31.40;30.30
5346;DHT22;2695;49.444;11.054;2023-04-30T09:02:16;30.90;30.60
5346;DHT22;2695;49.444;11.054;2023-04-30T09:04:47;30.40;31.40
5346;DHT22;2695;49.444;11.054;2023-04-30T09:07:20;30.10;31.20
5346;DHT22;2695;49.444;11.054;2023-04-30T09:09:52;29.60;30.90
5346;DHT22;2695;49.444;11.054;2023-04-30T09:12:20;29.60;31.80
5346;DHT22;2695;49.444;11.054;2023-04-30T09:14:57;29.50;31.30
5346;DHT22;2695;49.444;11.054;2023-04-30T09:17:27;29.90;31.40
5346;DHT22;2695;49.444;11.054;2023-04-30T09:20:06;30.10;32.70
5346;DHT22;2695;49.444;11.054;2023-04-30T09:22:35;31.10;32.20
5346;DHT22;2695;49.444;11.054;2023-04-30T09:25:04;30.60;32.10
5346;DHT22;2695;49.444;11.054;2023-04-30T09:27:34;29.60;32.10
5346;DHT22;2695;49.444;11.054;2023-04-30T09:30:03;29.20;33.00
5346;DHT22;2695;49.444;11.054;2023-04-30T09:32:33;29.90;32.50
5346;DHT22;2695;49.444;11.054;2023-04-30T09:35:01;30.80;31.50
5346;DHT22;2695;49.444;11.054;2023-04-30T09:37:35;30.80;31.30
5346;DHT22;2695;49.444;11.054;2023-04-30T09:40:05;31.10;30.10
5346;DHT22;2695;49.444;11.054;2023-04-30T09:42:38;30.80;30.90
5346;DHT22;2695;49.444;11.054;2023-04-30T09:45:13;30.60;30.00
5346;DHT22;2695;49.444;11.054;2023-04-30T09:47:46;30.00;31.30
5346;DHT22;2695;49.444;11.054;2023-04-30T09:50:14;29.40;32.40
5346;DHT22;2695;49.444;11.054;2023-04-30T09:52:47;28.40;34.10
5346;DHT22;2695;49.444;11.054;2023-04-30T09:55:19;28.40;34.10
5346;DHT22;2695;49.444;11.054;2023-04-30T09:57:50;29.30;32.50
5346;DHT22;2695;49.444;11.054;2023-04-30T10:00:19;29.80;32.10
5346;DHT22;2695;49.444;11.054;2023-04-30T10:02:51;29.80;31.70
5346;DHT22;2695;49.444;11.054;2023-04-30T10:05:22;30.00;31.10
5346;DHT22;2695;49.444;11.054;2023-04-30T10:07:50;30.30;31.10
5346;DHT22;2695;49.444;11.054;2023-04-30T10:10:20;30.40;30.40
5346;DHT22;2695;49.444;11.054;2023-04-30T10:12:51;30.00;30.50
5346;DHT22;2695;49.444;11.054;2023-04-30T10:15:25;29.60;30.70
5346;DHT22;2695;49.444;11.054;2023-04-30T10:18:02;29.20;31.20
5346;DHT22;2695;49.444;11.054;2023-04-30T10:20:34;28.30;32.60
5346;DHT22;2695;49.444;11.054;2023-04-30T10:23:04;27.80;33.00
5346;DHT22;2695;49.444;11.054;2023-04-30T10:25:33;27.70;33.30
5346;DHT22;2695;49.444;11.054;2023-04-30T10:28:01;27.70;33.60
5346;DHT22;2695;49.444;11.054;2023-04-30T10:30:34;28.10;33.30
5346;DHT22;2695;49.444;11.054;2023-04-30T10:33:12;28.50;33.00
5346;DHT22;2695;49.444;11.054;2023-04-30T10:35:50;28.30;33.90
5346;DHT22;2695;49.444;11.054;2023-04-30T10:38:25;27.90;34.80
5346;DHT22;2695;49.444;11.054;2023-04-30T10:40:54;28.10;33.80
5346;DHT22;2695;49.444;11.054;2023-04-30T10:43:29;28.30;33.30
5346;DHT22;2695;49.444;11.054;2023-04-30T10:45:57;28.10;33.60
5346;DHT22;2695;49.444;11.054;2023-04-30T10:48:38;28.40;34.10
5346;DHT22;2695;49.444;11.054;2023-04-30T10:51:46;28.70;32.60
5346;DHT22;2695;49.444;11.054;2023-04-30T10:54:16;29.00;32.80
5346;DHT22;2695;49.444;11.054;2023-04-30T10:56:50;29.20;33.70
5346;DHT22;2695;49.444;11.054;2023-04-30T10:59:21;30.00;33.20
5346;DHT22;2695;49.444;11.054;2023-04-30T11:01:57;29.50;31.30
5346;DHT22;2695;49.444;11.054;2023-04-30T11:04:28;28.70;32.50
5346;DHT22;2695;49.444;11.054;2023-04-30T11:07:09;28.30;32.80
5346;DHT22;2695;49.444;11.054;2023-04-30T11:09:39;28.30;33.30
5346;DHT22;2695;49.444;11.054;2023-04-30T11:12:11;28.60;33.10
5346;DHT22;2695;49.444;11.054;2023-04-30T11:14:41;28.50;33.10
5346;DHT22;2695;49.444;11.054;2023-04-30T11:17:10;28.80;32.60
5346;DHT22;2695;49.444;11.054;2023-04-30T11:19:45;28.70;32.50
5346;DHT22;2695;49.444;11.054;2023-04-30T11:22:20;28.10;32.90
5346;DHT22;2695;49.444;11.054;2023-04-30T11:24:50;27.00;34.20
5346;DHT22;2695;49.444;11.054;2023-04-30T11:27:19;25.90;36.10
5346;DHT22;2695;49.444;11.054;2023-04-30T11:29:49;25.30;37.00
5346;DHT22;2695;49.444;11.054;2023-04-30T11:32:18;25.20;37.10
5346;DHT22;2695;49.444;11.054;2023-04-30T11:34:48;25.70;36.40
5346;DHT22;2695;49.444;11.054;2023-04-30T11:37:19;26.20;36.70
5346;DHT22;2695;49.444;11.054;2023-04-30T11:39:49;26.70;35.30
5346;DHT22;2695;49.444;11.054;2023-04-30T11:42:18;26.70;34.90
5346;DHT22;2695;49.444;11.054;2023-04-30T11:44:46;25.70;35.60
5346;DHT22;2695;49.444;11.054;2023-04-30T11:47:15;24.50;37.30
5346;DHT22;2695;49.444;11.054;2023-04-30T11:49:43;24.00;38.70
5346;DHT22;2695;49.444;11.054;2023-04-30T11:52:13;24.20;38.40
5346;DHT22;2695;49.444;11.054;2023-04-30T11:54:41;24.80;37.50
5346;DHT22;2695;49.444;11.054;2023-04-30T11:57:09;24.90;37.30
5346;DHT22;2695;49.444;11.054;2023-04-30T11:59:40;25.20;36.70
5346;DHT22;2695;49.444;11.054;2023-04-30T12:02:13;25.30;36.00
5346;DHT22;2695;49.444;11.054;2023-04-30T12:04:42;25.10;36.00
5346;DHT22;2695;49.444;11.054;2023-04-30T12:07:10;24.30;36.60
5346;DHT22;2695;49.444;11.054;2023-04-30T12:09:53;23.20;38.10
5346;DHT22;2695;49.444;11.054;2023-04-30T12:12:28;22.30;39.80
5346;DHT22;2695;49.444;11.054;2023-04-30T12:14:56;21.80;40.50
5346;DHT22;2695;49.444;11.054;2023-04-30T12:17:31;21.80;41.20
5346;DHT22;2695;49.444;11.054;2023-04-30T12:19:59;22.20;40.50
5346;DHT22;2695;49.444;11.054;2023-04-30T12:22:28;22.70;39.80
5346;DHT22;2695;49.444;11.054;2023-04-30T12:24:58;22.70;39.80
5346;DHT22;2695;49.444;11.054;2023-04-30T12:27:29;22.50;39.40
5346;DHT22;2695;49.444;11.054;2023-04-30T12:30:01;22.10;40.40
5346;DHT22;2695;49.444;11.054;2023-04-30T12:32:30;21.90;40.60
5346;DHT22;2695;49.444;11.054;2023-04-30T12:35:00;21.90;41.10
5346;DHT22;2695;49.444;11.054;2023-04-30T12:37:28;21.60;42.00
5346;DHT22;2695;49.444;11.054;2023-04-30T12:39:58;21.60;41.70
5346;DHT22;2695;49.444;11.054;2023-04-30T12:42:30;21.40;41.50
5346;DHT22;2695;49.444;11.054;2023-04-30T12:45:00;21.40;41.90
5346;DHT22;2695;49.444;11.054;2023-04-30T12:47:28;21.40;40.90
5346;DHT22;2695;49.444;11.054;2023-04-30T12:49:57;21.50;40.80
5346;DHT22;2695;49.444;11.054;2023-04-30T12:52:25;21.80;40.90
5346;DHT22;2695;49.444;11.054;2023-04-30T12:54:53;21.70;40.40
5346;DHT22;2695;49.444;11.054;2023-04-30T12:57:23;21.60;41.00
5346;DHT22;2695;49.444;11.054;2023-04-30T12:59:58;21.60;42.00
5346;DHT22;2695;49.444;11.054;2023-04-30T13:02:28;21.50;42.70
5346;DHT22;2695;49.444;11.054;2023-04-30T13:04:58;21.20;42.00
5346;DHT22;2695;49.444;11.054;2023-04-30T13:07:35;20.90;42.10
5346;DHT22;2695;49.444;11.054;2023-04-30T13:10:04;20.90;42.90
5346;DHT22;2695;49.444;11.054;2023-04-30T13:12:34;20.70;43.50
5346;DHT22;2695;49.444;11.054;2023-04-30T13:15:03;20.70;43.80
5346;DHT22;2695;49.444;11.054;2023-04-30T13:17:31;20.60;44.50
5346;DHT22;2695;49.444;11.054;2023-04-30T13:19:59;20.60;44.30
5346;DHT22;2695;49.444;11.054;2023-04-30T13:22:27;20.50;43.30
5346;DHT22;2695;49.444;11.054;2023-04-30T13:24:56;20.10;43.70
5346;DHT22;2695;49.444;11.054;2023-04-30T13:27:24;20.10;44.60
5346;DHT22;2695;49.444;11.054;2023-04-30T13:29:53;20.10;45.00
5346;DHT22;2695;49.444;11.054;2023-04-30T13:32:22;20.30;45.10
5346;DHT22;2695;49.444;11.054;2023-04-30T13:34:50;20.70;44.20
5346;DHT22;2695;49.444;11.054;2023-04-30T13:37:20;20.90;42.60
5346;DHT22;2695;49.444;11.054;2023-04-30T13:39:48;20.90;41.50
5346;DHT22;2695;49.444;11.054;2023-04-30T13:42:16;20.80;41.80
5346;DHT22;2695;49.444;11.054;2023-04-30T13:44:44;20.50;43.00
5346;DHT22;2695;49.444;11.054;2023-04-30T13:47:17;20.20;45.60
5346;DHT22;2695;49.444;11.054;2023-04-30T13:49:45;20.10;45.60
5346;DHT22;2695;49.444;11.054;2023-04-30T13:52:13;20.10;45.80
5346;DHT22;2695;49.444;11.054;2023-04-30T13:54:41;20.00;46.20
5346;DHT22;2695;49.444;11.054;2023-04-30T13:57:09;19.90;45.60
5346;DHT22;2695;49.444;11.054;2023-04-30T13:59:37;19.90;45.30
5346;DHT22;2695;49.444;11.054;2023-04-30T14:02:05;20.00;42.90
5346;DHT22;2695;49.444;11.054;2023-04-30T14:04:35;20.00;43.70
5346;DHT22;2695;49.444;11.054;2023-04-30T14:07:03;20.20;43.90
5346;DHT22;2695;49.444;11.054;2023-04-30T14:09:31;20.50;44.30
5346;DHT22;2695;49.444;11.054;2023-04-30T14:11:59;20.50;44.70
5346;DHT22;2695;49.444;11.054;2023-04-30T14:14:28;20.50;45.00
5346;DHT22;2695;49.444;11.054;2023-04-30T14:16:56;20.40;43.20
5346;DHT22;2695;49.444;11.054;2023-04-30T14:19:24;20.10;43.50
5346;DHT22;2695;49.444;11.054;2023-04-30T14:21:54;19.80;44.50
5346;DHT22;2695;49.444;11.054;2023-04-30T14:24:22;19.60;44.60
5346;DHT22;2695;49.444;11.054;2023-04-30T14:26:50;19.50;44.60
5346;DHT22;2695;49.444;11.054;2023-04-30T14:29:18;19.50;44.10
5346;DHT22;2695;49.444;11.054;2023-04-30T14:31:47;19.60;44.20
5346;DHT22;2695;49.444;11.054;2023-04-30T14:34:16;19.80;43.80
5346;DHT22;2695;49.444;11.054;2023-04-30T14:36:45;20.10;43.60
5346;DHT22;2695;49.444;11.054;2023-04-30T14:39:15;20.30;43.50
5346;DHT22;2695;49.444;11.054;2023-04-30T14:41:43;20.30;43.00
5346;DHT22;2695;49.444;11.054;2023-04-30T14:44:11;20.10;43.10
5346;DHT22;2695;49.444;11.054;2023-04-30T14:46:39;19.80;44.30
5346;DHT22;2695;49.444;11.054;2023-04-30T14:49:07;19.60;45.80
5346;DHT22;2695;49.444;11.054;2023-04-30T14:51:35;19.40;46.10
5346;DHT22;2695;49.444;11.054;2023-04-30T14:54:03;19.40;47.20
5346;DHT22;2695;49.444;11.054;2023-04-30T14:56:33;19.30;46.50
5346;DHT22;2695;49.444;11.054;2023-04-30T14:59:01;19.30;46.80
5346;DHT22;2695;49.444;11.054;2023-04-30T15:01:29;19.30;47.00
5346;DHT22;2695;49.444;11.054;2023-04-30T15:03:58;19.40;45.90
5346;DHT22;2695;49.444;11.054;2023-04-30T15:06:26;19.50;45.80
5346;DHT22;2695;49.444;11.054;2023-04-30T15:08:54;19.50;46.20
5346;DHT22;2695;49.444;11.054;2023-04-30T15:11:22;19.50;46.10
5346;DHT22;2695;49.444;11.054;2023-04-30T15:13:52;19.60;45.60
5346;DHT22;2695;49.444;11.054;2023-04-30T15:16:21;19.70;45.60
5346;DHT22;2695;49.444;11.054;2023-04-30T15:18:49;19.70;44.90
5346;DHT22;2695;49.444;11.054;2023-04-30T15:21:17;19.70;45.10
5346;DHT22;2695;49.444;11.054;2023-04-30T15:23:45;19.80;45.50
5346;DHT22;2695;49.444;11.054;2023-04-30T15:26:13;20.10;45.30
5346;DHT22;2695;49.444;11.054;2023-04-30T15:28:41;20.20;45.10
5346;DHT22;2695;49.444;11.054;2023-04-30T15:31:11;20.20;44.90
5346;DHT22;2695;49.444;11.054;2023-04-30T15:33:39;20.50;45.00
5346;DHT22;2695;49.444;11.054;2023-04-30T15:36:09;20.80;45.30
5346;DHT22;2695;49.444;11.054;2023-04-30T15:38:38;20.80;44.70
5346;DHT22;2695;49.444;11.054;2023-04-30T15:41:06;20.60;44.20
5346;DHT22;2695;49.444;11.054;2023-04-30T15:43:34;20.20;44.30
5346;DHT22;2695;49.444;11.054;2023-04-30T15:46:02;19.90;44.90
5346;DHT22;2695;49.444;11.054;2023-04-30T15:48:33;19.50;45.60
5346;DHT22;2695;49.444;11.054;2023-04-30T15:51:02;19.30;45.90
5346;DHT22;2695;49.444;11.054;2023-04-30T15:53:30;19.10;46.40
5346;DHT22;2695;49.444;11.054;2023-04-30T15:55:58;19.10;47.10
5346;DHT22;2695;49.444;11.054;2023-04-30T15:58:26;19.10;47.00
5346;DHT22;2695;49.444;11.054;2023-04-30T16:00:54;19.10;47.90
5346;DHT22;2695;49.444;11.054;2023-04-30T16:03:22;19.10;47.10
5346;DHT22;2695;49.444;11.054;2023-04-30T16:05:52;19.10;47.50
5346;DHT22;2695;49.444;11.054;2023-04-30T16:08:21;19.30;47.30